Time;durP1;ratioP1;P1;durP2;ratioP2;P2;SDS_P1;SDS_P2;PMS_P1;PMS_P2;Temp;Humidity;BMP_temperature;BMP_pressure;BME280_temperature;BME280_humidity;BME280_pressure;Samples;Min_cycle;Max_cycle;Signal;HPM_P1;HPM_P2
2022/01/22 00:08:14;;;;;;;7.72;4.43;;;0.30;99.90;;;;;;20833302;28;20029;-74
2022/01/22 00:18:15;;;;;;;11.32;5.15;;;0.20;99.90;;;;;;20841737;28;20115;-75
2022/01/22 00:28:16;;;;;;;11.60;4.97;;;0.30;99.90;;;;;;20841088;28;20033;-74
2022/01/22 00:38:17;;;;;;;11.40;5.75;;;0.30;99.90;;;;;;20842872;22;20029;-73
2022/01/22 00:48:18;;;;;;;15.73;5.90;;;0.20;99.90;;;;;;20951181;28;20037;-73
2022/01/22 00:58:19;;;;;;;11.52;5.57;;;0.30;99.90;;;;;;21002997;28;20407;-73
2022/01/22 01:08:20;;;;;;;10.48;4.85;;;0.20;99.90;;;;;;20915907;28;20059;-73
2022/01/22 01:39:02;;;;;;;11.25;5.15;;;-0.50;99.90;;;;;;20899217;28;20526;-73
2022/01/22 01:49:04;;;;;;;11.68;5.28;;;-0.30;99.90;;;;;;20898630;28;20052;-72
2022/01/22 01:59:05;;;;;;;22.30;6.10;;;-0.40;99.90;;;;;;20915815;28;20036;-73
2022/01/22 02:09:08;;;;;;;16.27;6.88;;;-0.30;99.90;;;;;;20897183;28;20402;-73
2022/01/22 02:29:38;;;;;;;13.43;5.65;;;0.00;99.90;;;;;;20895356;28;20406;-73
2022/01/22 02:40:04;;;;;;;12.98;6.15;;;0.00;99.90;;;;;;20894643;28;20037;-73
2022/01/22 02:50:08;;;;;;;13.63;5.68;;;0.10;99.90;;;;;;20893720;28;20028;-73
2022/01/22 03:00:12;;;;;;;15.10;6.07;;;0.00;99.90;;;;;;20893049;28;20036;-73
2022/01/22 03:10:15;;;;;;;13.77;5.57;;;0.10;99.90;;;;;;20892343;28;20037;-73
2022/01/22 03:30:17;;;;;;;17.27;5.90;;;0.20;99.90;;;;;;20908609;28;20061;-73
2022/01/22 03:40:21;;;;;;;13.15;6.72;;;0.10;99.90;;;;;;20889485;28;20032;-72
2022/01/22 03:50:22;;;;;;;34.92;7.20;;;0.10;99.90;;;;;;20889659;28;20033;-73
2022/01/22 04:00:24;;;;;;;24.52;9.88;;;0.20;99.90;;;;;;20887659;28;20395;-73
2022/01/22 04:10:28;;;;;;;18.23;7.30;;;0.20;99.90;;;;;;20888701;28;20033;-73
2022/01/22 04:30:48;;;;;;;16.00;7.55;;;0.30;99.90;;;;;;20906124;28;20067;-73
2022/01/22 04:40:49;;;;;;;18.80;7.20;;;0.20;99.90;;;;;;20905757;28;20025;-73
2022/01/22 05:01:10;;;;;;;16.77;7.15;;;0.20;99.90;;;;;;20902742;28;20029;-73
2022/01/22 05:11:30;;;;;;;10.68;6.65;;;0.10;99.90;;;;;;20904512;28;20045;-73
2022/01/22 05:21:35;;;;;;;14.85;6.47;;;0.20;99.90;;;;;;20900949;28;20029;-73
2022/01/22 05:42:09;;;;;;;7.53;4.43;;;0.00;99.90;;;;;;20918387;28;20045;-73
2022/01/22 05:52:13;;;;;;;13.85;6.82;;;0.10;99.90;;;;;;20898788;28;20488;-73
2022/01/22 06:02:16;;;;;;;21.02;7.05;;;0.00;99.90;;;;;;20896915;28;20041;-73
2022/01/22 06:22:42;;;;;;;15.13;7.15;;;-0.10;99.90;;;;;;20896200;28;20483;-73
2022/01/22 06:32:43;;;;;;;14.05;7.70;;;-0.10;99.90;;;;;;20912998;28;20052;-73
2022/01/22 06:42:45;;;;;;;25.13;7.95;;;-0.10;99.90;;;;;;20845299;22;20434;-74
2022/01/22 06:52:57;;;;;;;13.23;7.20;;;-0.10;99.90;;;;;;20828628;28;20036;-74
2022/01/22 07:03:18;;;;;;;15.90;7.35;;;0.00;99.90;;;;;;20828183;28;20037;-74
2022/01/22 07:13:24;;;;;;;15.27;6.47;;;0.10;99.90;;;;;;20828958;28;20026;-74
2022/01/22 07:33:38;;;;;;;13.70;7.15;;;0.10;99.90;;;;;;20827275;28;20642;-75
2022/01/22 07:43:40;;;;;;;17.15;7.50;;;0.20;99.90;;;;;;20824474;28;20025;-75
2022/01/22 07:53:44;;;;;;;15.85;7.63;;;0.10;99.90;;;;;;20825527;28;20123;-74
2022/01/22 08:03:53;;;;;;;14.88;7.57;;;0.10;99.90;;;;;;20808214;28;20615;-74
2022/01/22 08:14:12;;;;;;;13.55;6.80;;;0.20;99.90;;;;;;20824582;28;20113;-75
2022/01/22 08:24:15;;;;;;;17.15;7.40;;;0.40;99.90;;;;;;20818544;28;20194;-75
2022/01/22 08:44:42;;;;;;;11.70;5.77;;;0.70;99.90;;;;;;20904571;28;20029;-75
2022/01/22 08:54:49;;;;;;;13.82;7.10;;;0.90;99.90;;;;;;20835049;28;20033;-75
2022/01/22 09:04:54;;;;;;;13.95;6.55;;;1.30;99.90;;;;;;20817561;28;20032;-75
2022/01/22 09:14:57;;;;;;;18.70;6.82;;;1.70;99.90;;;;;;20847854;28;20041;-75
2022/01/22 09:24:59;;;;;;;13.25;6.00;;;2.00;99.90;;;;;;20827495;28;20615;-75
2022/01/22 09:35:01;;;;;;;30.38;8.32;;;2.10;99.90;;;;;;20815631;28;20037;-75
2022/01/22 09:45:23;;;;;;;15.20;6.67;;;2.70;99.90;;;;;;20815571;28;20530;-75
2022/01/22 09:55:35;;;;;;;14.52;7.03;;;2.90;99.90;;;;;;20812952;28;20037;-75
2022/01/22 10:05:51;;;;;;;19.63;7.45;;;3.20;99.90;;;;;;20811663;28;20084;-75
2022/01/22 10:16:36;;;;;;;16.00;6.68;;;3.40;99.90;;;;;;20802134;28;20037;-75
2022/01/22 10:26:36;;;;;;;14.13;6.40;;;4.00;99.90;;;;;;20810807;28;20049;-76
2022/01/22 10:36:39;;;;;;;20.13;6.40;;;4.70;99.90;;;;;;20808971;28;20029;-76
2022/01/22 10:47:04;;;;;;;11.30;6.15;;;5.00;99.90;;;;;;20810598;28;20025;-76
2022/01/22 10:57:24;;;;;;;14.82;6.15;;;5.30;99.90;;;;;;20815442;28;20029;-75
2022/01/22 11:07:25;;;;;;;10.65;6.15;;;5.90;99.90;;;;;;20801739;28;20029;-76
2022/01/22 11:17:31;;;;;;;12.27;6.03;;;6.00;99.90;;;;;;20804783;28;20071;-73
2022/01/22 11:27:36;;;;;;;10.57;5.68;;;7.40;99.90;;;;;;20802926;28;20540;-76
2022/01/22 11:37:45;;;;;;;9.18;5.47;;;7.50;99.90;;;;;;20802871;28;20112;-76
2022/01/22 11:48:24;;;;;;;9.60;5.82;;;7.40;99.90;;;;;;20791046;28;20045;-75
2022/01/22 11:58:25;;;;;;;12.50;5.93;;;6.80;99.90;;;;;;20724764;28;20678;-76
2022/01/22 12:08:26;;;;;;;11.33;5.20;;;5.60;99.90;;;;;;20750156;28;20050;-76
2022/01/22 12:18:34;;;;;;;10.93;5.70;;;8.90;99.90;;;;;;20801258;28;20087;-77
2022/01/22 12:28:34;;;;;;;8.80;5.15;;;9.70;99.90;;;;;;20803000;28;20507;-76
2022/01/22 12:38:51;;;;;;;13.47;5.77;;;8.90;99.90;;;;;;20856776;23;20052;-73
2022/01/22 12:48:53;;;;;;;11.10;5.07;;;9.40;99.90;;;;;;20945623;28;20554;-73
2022/01/22 12:59:01;;;;;;;7.68;4.35;;;8.70;99.90;;;;;;20868532;28;20059;-73
2022/01/22 13:09:02;;;;;;;7.95;4.53;;;10.40;99.90;;;;;;20882967;28;20036;-73
2022/01/22 13:19:05;;;;;;;12.60;4.50;;;9.60;99.90;;;;;;20939997;28;20470;-73
2022/01/22 13:29:24;;;;;;;8.10;4.73;;;9.60;99.90;;;;;;20898158;28;20044;-73
2022/01/22 13:40:06;;;;;;;11.48;4.20;;;10.30;99.90;;;;;;20897956;28;20044;-74
2022/01/22 13:49:59;;;;;;;8.88;4.57;;;9.90;99.90;;;;;;20897230;28;20135;-73
2022/01/22 14:00:09;;;;;;;6.78;4.40;;;8.80;99.90;;;;;;20895455;28;20056;-73
2022/01/22 14:10:12;;;;;;;6.33;3.37;;;9.00;99.90;;;;;;20896225;28;20078;-73
2022/01/22 14:20:13;;;;;;;8.17;3.23;;;9.50;99.90;;;;;;20937077;28;20116;-74
2022/01/22 14:30:13;;;;;;;6.67;3.20;;;9.40;99.90;;;;;;20909843;28;20056;-73
2022/01/22 14:50:37;;;;;;;14.23;5.88;;;9.20;99.90;;;;;;20912855;28;20394;-73
2022/01/22 15:00:38;;;;;;;8.93;4.03;;;8.40;99.90;;;;;;20914712;28;20025;-74
2022/01/22 15:10:39;;;;;;;11.37;4.60;;;8.00;99.90;;;;;;20893792;28;20021;-74
2022/01/22 15:20:43;;;;;;;16.23;4.90;;;8.40;99.90;;;;;;20893408;28;20056;-73
2022/01/22 15:30:50;;;;;;;10.52;5.18;;;8.20;99.90;;;;;;20908134;28;20052;-73
2022/01/22 15:40:51;;;;;;;31.83;14.10;;;7.60;99.90;;;;;;20912786;28;20036;-73
2022/01/22 15:50:52;;;;;;;9.07;5.13;;;7.70;99.90;;;;;;20967130;28;20087;-74
2022/01/22 16:00:53;;;;;;;9.90;4.77;;;6.90;99.90;;;;;;20888263;28;20045;-74
2022/01/22 16:10:54;;;;;;;9.57;4.53;;;6.50;99.90;;;;;;20891012;28;20033;-73
2022/01/22 16:20:55;;;;;;;11.70;5.47;;;5.90;99.90;;;;;;20897651;28;20112;-73
2022/01/22 16:30:56;;;;;;;12.38;6.00;;;4.90;99.90;;;;;;20921351;28;20039;-73
2022/01/22 16:40:57;;;;;;;16.58;5.40;;;4.40;99.90;;;;;;20875724;28;20103;-73
2022/01/22 17:01:35;;;;;;;36.00;12.52;;;3.70;99.90;;;;;;20902025;28;20039;-73
2022/01/22 17:22:03;;;;;;;19.17;7.97;;;1.70;99.90;;;;;;20874380;28;20061;-73
2022/01/22 17:32:04;;;;;;;16.85;7.75;;;1.40;99.90;;;;;;20941827;28;20032;-73
2022/01/22 17:42:09;;;;;;;21.30;9.63;;;1.30;99.90;;;;;;20863106;28;20477;-73
2022/01/22 17:52:10;;;;;;;28.55;10.93;;;1.50;99.90;;;;;;20896494;28;20060;-73
2022/01/22 18:02:13;;;;;;;26.45;11.52;;;1.40;99.90;;;;;;20895602;28;20115;-73
2022/01/22 18:12:16;;;;;;;20.10;8.57;;;0.90;99.90;;;;;;20895225;28;20578;-73
2022/01/22 18:22:17;;;;;;;25.40;9.70;;;0.70;99.90;;;;;;20877038;28;20643;-72
2022/01/22 18:32:18;;;;;;;24.90;9.32;;;0.80;99.90;;;;;;20935879;28;20033;-71
2022/01/22 18:42:19;;;;;;;22.42;9.70;;;0.70;99.90;;;;;;20898623;23;20045;-75
2022/01/22 18:52:19;;;;;;;25.55;9.98;;;0.20;99.90;;;;;;20888215;28;20047;-76
2022/01/22 19:02:23;;;;;;;20.80;9.38;;;0.20;99.90;;;;;;20871598;28;20076;-76
2022/01/22 19:12:25;;;;;;;18.92;9.02;;;0.40;99.90;;;;;;20805085;28;20120;-76
2022/01/22 19:32:33;;;;;;;22.75;9.35;;;0.10;99.90;;;;;;20849058;28;20070;-74
2022/01/22 19:42:38;;;;;;;18.63;8.07;;;-0.10;99.90;;;;;;20765726;28;1150314;-75
2022/01/22 19:52:40;;;;;;;15.82;8.27;;;0.00;99.90;;;;;;20805970;28;20051;-75
2022/01/22 20:02:40;;;;;;;17.08;8.48;;;-0.20;99.90;;;;;;20804252;28;20048;-74
2022/01/22 20:12:42;;;;;;;24.25;10.20;;;-0.30;99.90;;;;;;20807685;28;20420;-75
2022/01/22 20:22:42;;;;;;;20.02;9.25;;;-0.40;99.90;;;;;;20806348;28;20041;-75
2022/01/22 20:32:46;;;;;;;27.98;8.88;;;-0.40;99.90;;;;;;20865658;28;20052;-75
2022/01/22 20:42:48;;;;;;;15.27;7.85;;;-0.40;99.90;;;;;;20819447;28;20050;-76
2022/01/22 20:52:51;;;;;;;15.63;8.40;;;-0.20;99.90;;;;;;20817024;28;20113;-74
2022/01/22 21:02:54;;;;;;;30.77;11.65;;;-0.20;99.90;;;;;;20818156;28;20042;-75
2022/01/22 21:12:55;;;;;;;22.92;9.50;;;-0.50;99.90;;;;;;20816007;28;20049;-75
2022/01/22 21:22:56;;;;;;;28.60;11.57;;;-0.30;99.90;;;;;;20817909;28;20052;-75
2022/01/22 21:32:57;;;;;;;29.30;11.00;;;-0.20;99.90;;;;;;20844624;28;20649;-74
2022/01/22 21:42:58;;;;;;;18.38;8.93;;;-0.50;99.90;;;;;;20814611;28;20567;-75
2022/01/22 21:52:59;;;;;;;25.00;9.93;;;-0.70;99.90;;;;;;20811391;28;20045;-75
2022/01/22 22:03:02;;;;;;;25.90;9.65;;;-0.90;99.90;;;;;;20809937;28;20040;-75
2022/01/22 22:13:03;;;;;;;12.75;6.95;;;-1.00;99.90;;;;;;20813220;28;20061;-75
2022/01/22 22:23:04;;;;;;;14.88;7.40;;;-1.00;99.90;;;;;;20810240;28;20125;-75
2022/01/22 22:33:07;;;;;;;20.40;7.65;;;-1.10;99.90;;;;;;20818196;28;20029;-75
2022/01/22 22:43:08;;;;;;;19.73;8.07;;;-1.40;99.90;;;;;;20826500;28;20044;-75
2022/01/22 22:53:09;;;;;;;16.63;8.20;;;-1.30;99.90;;;;;;20829965;28;20488;-74
2022/01/22 23:03:12;;;;;;;17.20;8.18;;;-1.30;99.90;;;;;;20830650;28;20440;-75
2022/01/22 23:13:23;;;;;;;19.27;9.13;;;-1.30;99.90;;;;;;20828648;28;20044;-75
2022/01/22 23:33:36;;;;;;;22.10;9.20;;;-1.50;99.90;;;;;;20827754;28;20025;-74
2022/01/22 23:54:13;;;;;;;13.80;7.10;;;-1.70;99.90;;;;;;20833658;28;19917;-75
